Oski — WYD3004 — position and weather

sailwx.info

Track history (hours):
 
Tides and Currents Weather Stations Pressure Air Temp Water Temp Dewpoint Dewpoint Depression Visibility Wind Speed Wind Dir Waves Ship Positions

Oski

Owner: BLUE & GOLD FLEET, SAN FRANCISCO, CA. More information available from US FCC via Universal Licensing System and Coast Guard Vessel Documentation Center.

Last reported at 2015-May-23 06:33 UTC. Time now 2015-May-23 07:20 UTC.
Position N 37°49' W 122°25'.

Length 24 m; draft 2 m.

Type: Passenger vessel. MMSI: 366985320.

Date/timePositionNaut miles runAvg speedWind from/ knotsBaromVisibWave heightAir tempDewpointWater temp
2015-May-23 06:33N 37°49' W 122°25'0 0.0
2015-May-23 05:33N 37°49' W 122°25'0 0.0
2015-May-23 04:33N 37°49' W 122°25'0 0.0
2015-May-23 03:33N 37°49' W 122°25'0 0.0
2015-May-23 02:32N 37°49' W 122°25'0 0.0
2015-May-23 01:32N 37°49' W 122°25'0 0.0
2015-May-23 00:32N 37°49' W 122°25'2 1.8
2015-May-22 23:32N 37°50' W 122°26'2 1.8
2015-May-22 22:33N 37°49' W 122°25'2 2.0
2015-May-22 21:33N 37°49' W 122°27'2 2.0
2015-May-22 20:34N 37°49' W 122°25'2 1.9
2015-May-22 19:32N 37°49' W 122°27'2 2.3
2015-May-22 18:33N 37°49' W 122°24'0 0.4
2015-May-22 17:33N 37°49' W 122°25'0 0.0
2015-May-22 05:33N 37°49' W 122°25'0 0.0
2015-May-22 04:28N 37°49' W 122°25'0 0.0
2015-May-22 03:32N 37°49' W 122°25'0 0.0
2015-May-22 02:26N 37°49' W 122°25'0 0.0
2015-May-22 01:32N 37°49' W 122°25'0 0.0
2015-May-22 00:33N 37°49' W 122°25'1 1.1
2015-May-21 23:33N 37°50' W 122°25'1 1.1
2015-May-21 22:33N 37°49' W 122°25'2 1.9
2015-May-21 21:31N 37°49' W 122°27'2 2.0
2015-May-21 20:34N 37°49' W 122°25'2 2.0
2015-May-21 19:32N 37°49' W 122°27'2 2.4
2015-May-21 18:33N 37°49' W 122°24'0 0.4
2015-May-21 17:32N 37°49' W 122°25'0 0.0
2015-May-21 16:32N 37°49' W 122°25'0 0.0
2015-May-21 05:33N 37°49' W 122°25'0 0.0
2015-May-21 04:31N 37°49' W 122°25'0 0.0
2015-May-21 03:33N 37°49' W 122°25'0 0.0
2015-May-21 02:33N 37°49' W 122°25'0 0.0
2015-May-21 01:33N 37°49' W 122°25'0 0.2
2015-May-21 00:33N 37°49' W 122°25'0 0.2
2015-May-20 23:33N 37°49' W 122°25'2 1.9
2015-May-20 22:33N 37°49' W 122°27'2 1.9
2015-May-20 21:33N 37°49' W 122°25'2 2.1
2015-May-20 20:33N 37°49' W 122°27'3 2.8
2015-May-20 19:33N 37°49' W 122°24'1 0.8
2015-May-20 18:33N 37°49' W 122°25'0 0.0
2015-May-20 16:06N 37°49' W 122°25'0 0.0
2015-May-20 15:30N 37°49' W 122°25'0 0.0
2015-May-20 14:18N 37°49' W 122°25'0 0.0
2015-May-20 13:22N 37°49' W 122°25'0 0.0
2015-May-20 12:14N 37°49' W 122°25'0 0.0
2015-May-20 11:31N 37°49' W 122°25'0 0.0
2015-May-20 10:25N 37°49' W 122°25'0 0.0
2015-May-20 09:31N 37°49' W 122°25'0 0.0
2015-May-20 08:31N 37°49' W 122°25'0 0.0
2015-May-20 07:25N 37°49' W 122°25'0 0.0
2015-May-20 06:30N 37°49' W 122°25'0 0.0
2015-May-20 05:31N 37°49' W 122°25'0 0.0
2015-May-20 04:27N 37°49' W 122°25'0 0.0
2015-May-20 03:24N 37°49' W 122°25'0 0.0
2015-May-20 02:22N 37°49' W 122°25'0 0.0
2015-May-20 01:21N 37°49' W 122°25'0 0.0
2015-May-20 00:28N 37°49' W 122°25'0 0.0
2015-May-19 23:33N 37°49' W 122°25'0 0.0
2015-May-19 22:18N 37°49' W 122°25'0 0.0
2015-May-19 21:15N 37°49' W 122°25'0 0.0
2015-May-19 20:32N 37°49' W 122°25'0 0.0
2015-May-19 19:31N 37°49' W 122°25'0 0.0
2015-May-19 18:31N 37°49' W 122°25'0 0.0
2015-May-19 17:32N 37°49' W 122°25'0 0.0
2015-May-19 15:14N 37°49' W 122°25'0 0.0
2015-May-19 14:23N 37°49' W 122°25'0 0.0
2015-May-19 13:31N 37°49' W 122°25'0 0.0
2015-May-19 12:31N 37°49' W 122°25'0 0.0
2015-May-19 11:32N 37°49' W 122°25'0 0.0
2015-May-19 10:29N 37°49' W 122°25'0 0.0
2015-May-19 09:32N 37°49' W 122°25'0 0.0
2015-May-19 08:23N 37°49' W 122°25'0 0.0
2015-May-19 07:29N 37°49' W 122°25'0 0.0
2015-May-19 06:30N 37°49' W 122°25'0 0.0
2015-May-19 05:30N 37°49' W 122°25'0 0.0
2015-May-19 04:27N 37°49' W 122°25'0 0.0
2015-May-19 03:32N 37°49' W 122°25'0 0.0
2015-May-19 02:03N 37°49' W 122°25'0 0.0
2015-May-19 01:32N 37°49' W 122°25'0 0.0
2015-May-18 23:28N 37°49' W 122°25'0 0.0
2015-May-18 22:33N 37°49' W 122°25'0 0.0
2015-May-18 21:29N 37°49' W 122°25'0 0.0
2015-May-18 20:23N 37°49' W 122°25'0 0.0
2015-May-18 19:14N 37°49' W 122°25'0 0.0
2015-May-18 18:12N 37°49' W 122°25'0 0.0
2015-May-18 17:29N 37°49' W 122°25'0 0.0
2015-May-18 16:22N 37°49' W 122°25'0 0.0
2015-May-18 15:13N 37°49' W 122°25'0 0.0
2015-May-18 14:32N 37°49' W 122°25'0 0.0
2015-May-18 13:13N 37°49' W 122°25'0 0.0
2015-May-18 11:32N 37°49' W 122°25'0 0.0
2015-May-18 10:13N 37°49' W 122°25'0 0.0
2015-May-18 09:29N 37°49' W 122°25'0 0.0
2015-May-18 08:20N 37°49' W 122°25'0 0.0
2015-May-18 07:31N 37°49' W 122°25'0 0.0
2015-May-18 06:33N 37°49' W 122°25'0 0.0
2015-May-18 05:18N 37°49' W 122°25'0 0.0
2015-May-18 04:31N 37°49' W 122°25'0 0.1
2015-May-18 01:33N 37°49' W 122°25'0 0.4
2015-May-18 00:34N 37°49' W 122°25'1 0.7
2015-May-17 23:33N 37°49' W 122°25'1 1.0
2015-May-17 22:34N 37°49' W 122°25'3 3.2
2015-May-17 21:34N 37°49' W 122°29'3 3.0
2015-May-17 20:28N 37°49' W 122°25'2 2.3
2015-May-17 19:33N 37°49' W 122°27'2 2.4
2015-May-17 18:33N 37°49' W 122°24'0 0.4
2015-May-17 17:30N 37°49' W 122°25'0 0.0
2015-May-17 03:28N 37°49' W 122°25'0 0.0
2015-May-17 01:23N 37°49' W 122°25'0 0.1
2015-May-17 00:31N 37°49' W 122°25'1 1.1
2015-May-16 23:33N 37°49' W 122°25'1 1.1
2015-May-16 22:33N 37°49' W 122°25'2 1.9
2015-May-16 21:30N 37°49' W 122°27'2 2.1
2015-May-16 20:33N 37°49' W 122°25'2 2.5
2015-May-16 19:33N 37°49' W 122°28'3 2.6
2015-May-16 18:33N 37°49' W 122°24'0 0.2
2015-May-16 17:31N 37°49' W 122°25'0 0.0
2015-May-16 06:10N 37°49' W 122°25'0 0.0
2015-May-16 05:32N 37°49' W 122°25'0 0.0
2015-May-16 04:30N 37°49' W 122°25'0 0.0
2015-May-16 03:23N 37°49' W 122°25'0 0.0
2015-May-16 02:28N 37°49' W 122°25'0 0.0
2015-May-16 01:24N 37°49' W 122°25'0 0.1
2015-May-16 00:33N 37°49' W 122°25'1 1.3
2015-May-15 23:33N 37°50' W 122°25'1 1.3
2015-May-15 22:33N 37°49' W 122°25'0 0.0
2015-May-15 21:33N 37°49' W 122°25'0 0.0
2015-May-15 20:33N 37°49' W 122°25'0 0.0
2015-May-15 19:32N 37°49' W 122°25'0 0.0
2015-May-15 18:33N 37°49' W 122°25'0 0.0
2015-May-15 17:32N 37°49' W 122°25'0 0.0
2015-May-15 16:33N 37°49' W 122°25'0 0.0
2015-May-15 15:32N 37°49' W 122°25'0 0.0
2015-May-15 14:33N 37°49' W 122°25'0 0.0
2015-May-15 13:32N 37°49' W 122°25'0 0.0
2015-May-15 12:32N 37°49' W 122°25'0 0.0
2015-May-15 11:33N 37°49' W 122°25'0 0.0
2015-May-15 10:32N 37°49' W 122°25'0 0.0
2015-May-15 09:33N 37°49' W 122°25'0 0.0
2015-May-15 08:33N 37°49' W 122°25'0 0.0
2015-May-15 07:33N 37°49' W 122°25'0 0.0
2015-May-15 06:33N 37°49' W 122°25'0 0.0
2015-May-15 05:29N 37°49' W 122°25'0 0.0
2015-May-15 04:33N 37°49' W 122°25'0 0.0
2015-May-15 03:26N 37°49' W 122°25'0 0.0
2015-May-15 02:33N 37°49' W 122°25'0 0.0
2015-May-15 01:33N 37°49' W 122°25'0 0.0
2015-May-15 00:33N 37°49' W 122°25'0 0.0
2015-May-14 23:33N 37°49' W 122°25'0 0.0
2015-May-14 22:32N 37°49' W 122°25'0 0.0
2015-May-14 21:33N 37°49' W 122°25'0 0.0
2015-May-14 20:33N 37°49' W 122°25'0 0.0
2015-May-14 19:32N 37°49' W 122°25'0 0.0
2015-May-14 18:33N 37°49' W 122°25'0 0.0
2015-May-14 17:30N 37°49' W 122°25'0 0.0
2015-May-14 16:33N 37°49' W 122°25'0 0.0
2015-May-14 15:33N 37°49' W 122°25'0 0.0
2015-May-14 14:32N 37°49' W 122°25'0 0.0
2015-May-14 13:31N 37°49' W 122°25'0 0.0
2015-May-14 12:33N 37°49' W 122°25'0 0.0
2015-May-14 11:31N 37°49' W 122°25'0 0.0
2015-May-14 10:33N 37°49' W 122°25'0 0.0
2015-May-14 09:33N 37°49' W 122°25'0 0.0
2015-May-14 08:33N 37°49' W 122°25'0 0.0
2015-May-14 07:32N 37°49' W 122°25'0 0.0
2015-May-14 06:29N 37°49' W 122°25'0 0.0
2015-May-14 05:24N 37°49' W 122°25'0 0.0
2015-May-14 04:23N 37°49' W 122°25'0 0.0
2015-May-14 03:30N 37°49' W 122°25'0 0.0
2015-May-14 02:33N 37°49' W 122°25'0 0.0
2015-May-14 01:33N 37°49' W 122°25'0 0.0
2015-May-14 00:33N 37°49' W 122°25'0 0.0
2015-May-13 23:33N 37°49' W 122°25'0 0.0
2015-May-13 22:32N 37°49' W 122°25'0 0.0
2015-May-13 21:33N 37°49' W 122°25'0 0.0
2015-May-13 20:33N 37°49' W 122°25'0 0.0
2015-May-13 19:33N 37°49' W 122°25'0 0.0
2015-May-13 18:33N 37°49' W 122°25'0 0.0
2015-May-13 17:33N 37°49' W 122°25'0 0.0
2015-May-13 16:32N 37°49' W 122°25'0 0.0
2015-May-13 15:33N 37°49' W 122°25'0 0.0
2015-May-13 14:33N 37°49' W 122°25'0 0.0
2015-May-13 13:27N 37°49' W 122°25'0 0.0
2015-May-13 12:32N 37°49' W 122°25'0 0.0
2015-May-13 11:32N 37°49' W 122°25'0 0.0
2015-May-13 10:32N 37°49' W 122°25'0 0.0
2015-May-13 09:33N 37°49' W 122°25'0 0.0
2015-May-13 08:33N 37°49' W 122°25'0 0.0
2015-May-13 07:31N 37°49' W 122°25'  
Track history (hours):
 
Tides and Currents Weather Stations Pressure Air Temp Water Temp Dewpoint Dewpoint Depression Visibility Wind Speed Wind Dir Waves Ship Positions

Oski

Owner: BLUE & GOLD FLEET, SAN FRANCISCO, CA. More information available from US FCC via Universal Licensing System and Coast Guard Vessel Documentation Center.

Last reported at 2015-May-23 06:33 UTC. Time now 2015-May-23 07:20 UTC.
Position N 37°49' W 122°25'.

Length 24 m; draft 2 m.

Type: Passenger vessel. MMSI: 366985320.

Date/timePositionNaut miles runAvg speedWind from/ knotsBaromVisibWave heightAir tempDewpointWater temp
2015-May-23 06:33N 37°49' W 122°25'0 0.0
2015-May-23 05:33N 37°49' W 122°25'0 0.0
2015-May-23 04:33N 37°49' W 122°25'0 0.0
2015-May-23 03:33N 37°49' W 122°25'0 0.0
2015-May-23 02:32N 37°49' W 122°25'0 0.0
2015-May-23 01:32N 37°49' W 122°25'0 0.0
2015-May-23 00:32N 37°49' W 122°25'2 1.8
2015-May-22 23:32N 37°50' W 122°26'2 1.8
2015-May-22 22:33N 37°49' W 122°25'2 2.0
2015-May-22 21:33N 37°49' W 122°27'2 2.0
2015-May-22 20:34N 37°49' W 122°25'2 1.9
2015-May-22 19:32N 37°49' W 122°27'2 2.3
2015-May-22 18:33N 37°49' W 122°24'0 0.4
2015-May-22 17:33N 37°49' W 122°25'0 0.0
2015-May-22 05:33N 37°49' W 122°25'0 0.0
2015-May-22 04:28N 37°49' W 122°25'0 0.0
2015-May-22 03:32N 37°49' W 122°25'0 0.0
2015-May-22 02:26N 37°49' W 122°25'0 0.0
2015-May-22 01:32N 37°49' W 122°25'0 0.0
2015-May-22 00:33N 37°49' W 122°25'1 1.1
2015-May-21 23:33N 37°50' W 122°25'1 1.1
2015-May-21 22:33N 37°49' W 122°25'2 1.9
2015-May-21 21:31N 37°49' W 122°27'2 2.0
2015-May-21 20:34N 37°49' W 122°25'2 2.0
2015-May-21 19:32N 37°49' W 122°27'2 2.4
2015-May-21 18:33N 37°49' W 122°24'0 0.4
2015-May-21 17:32N 37°49' W 122°25'0 0.0
2015-May-21 16:32N 37°49' W 122°25'0 0.0
2015-May-21 05:33N 37°49' W 122°25'0 0.0
2015-May-21 04:31N 37°49' W 122°25'0 0.0
2015-May-21 03:33N 37°49' W 122°25'0 0.0
2015-May-21 02:33N 37°49' W 122°25'0 0.0
2015-May-21 01:33N 37°49' W 122°25'0 0.2
2015-May-21 00:33N 37°49' W 122°25'0 0.2
2015-May-20 23:33N 37°49' W 122°25'2 1.9
2015-May-20 22:33N 37°49' W 122°27'2 1.9
2015-May-20 21:33N 37°49' W 122°25'2 2.1
2015-May-20 20:33N 37°49' W 122°27'3 2.8
2015-May-20 19:33N 37°49' W 122°24'1 0.8
2015-May-20 18:33N 37°49' W 122°25'0 0.0
2015-May-20 16:06N 37°49' W 122°25'0 0.0
2015-May-20 15:30N 37°49' W 122°25'0 0.0
2015-May-20 14:18N 37°49' W 122°25'0 0.0
2015-May-20 13:22N 37°49' W 122°25'0 0.0
2015-May-20 12:14N 37°49' W 122°25'0 0.0
2015-May-20 11:31N 37°49' W 122°25'0 0.0
2015-May-20 10:25N 37°49' W 122°25'0 0.0
2015-May-20 09:31N 37°49' W 122°25'0 0.0
2015-May-20 08:31N 37°49' W 122°25'0 0.0
2015-May-20 07:25N 37°49' W 122°25'0 0.0
2015-May-20 06:30N 37°49' W 122°25'0 0.0
2015-May-20 05:31N 37°49' W 122°25'0 0.0
2015-May-20 04:27N 37°49' W 122°25'0 0.0
2015-May-20 03:24N 37°49' W 122°25'0 0.0
2015-May-20 02:22N 37°49' W 122°25'0 0.0
2015-May-20 01:21N 37°49' W 122°25'0 0.0
2015-May-20 00:28N 37°49' W 122°25'0 0.0
2015-May-19 23:33N 37°49' W 122°25'0 0.0
2015-May-19 22:18N 37°49' W 122°25'0 0.0
2015-May-19 21:15N 37°49' W 122°25'0 0.0
2015-May-19 20:32N 37°49' W 122°25'0 0.0
2015-May-19 19:31N 37°49' W 122°25'0 0.0
2015-May-19 18:31N 37°49' W 122°25'0 0.0
2015-May-19 17:32N 37°49' W 122°25'0 0.0
2015-May-19 15:14N 37°49' W 122°25'0 0.0
2015-May-19 14:23N 37°49' W 122°25'0 0.0
2015-May-19 13:31N 37°49' W 122°25'0 0.0
2015-May-19 12:31N 37°49' W 122°25'0 0.0
2015-May-19 11:32N 37°49' W 122°25'0 0.0
2015-May-19 10:29N 37°49' W 122°25'0 0.0
2015-May-19 09:32N 37°49' W 122°25'0 0.0
2015-May-19 08:23N 37°49' W 122°25'0 0.0
2015-May-19 07:29N 37°49' W 122°25'0 0.0
2015-May-19 06:30N 37°49' W 122°25'0 0.0
2015-May-19 05:30N 37°49' W 122°25'0 0.0
2015-May-19 04:27N 37°49' W 122°25'0 0.0
2015-May-19 03:32N 37°49' W 122°25'0 0.0
2015-May-19 02:03N 37°49' W 122°25'0 0.0
2015-May-19 01:32N 37°49' W 122°25'0 0.0
2015-May-18 23:28N 37°49' W 122°25'0 0.0
2015-May-18 22:33N 37°49' W 122°25'0 0.0
2015-May-18 21:29N 37°49' W 122°25'0 0.0
2015-May-18 20:23N 37°49' W 122°25'0 0.0
2015-May-18 19:14N 37°49' W 122°25'0 0.0
2015-May-18 18:12N 37°49' W 122°25'0 0.0
2015-May-18 17:29N 37°49' W 122°25'0 0.0
2015-May-18 16:22N 37°49' W 122°25'0 0.0
2015-May-18 15:13N 37°49' W 122°25'0 0.0
2015-May-18 14:32N 37°49' W 122°25'0 0.0
2015-May-18 13:13N 37°49' W 122°25'0 0.0
2015-May-18 11:32N 37°49' W 122°25'0 0.0
2015-May-18 10:13N 37°49' W 122°25'0 0.0
2015-May-18 09:29N 37°49' W 122°25'0 0.0
2015-May-18 08:20N 37°49' W 122°25'0 0.0
2015-May-18 07:31N 37°49' W 122°25'0 0.0
2015-May-18 06:33N 37°49' W 122°25'0 0.0
2015-May-18 05:18N 37°49' W 122°25'0 0.0
2015-May-18 04:31N 37°49' W 122°25'0 0.1
2015-May-18 01:33N 37°49' W 122°25'0 0.4
2015-May-18 00:34N 37°49' W 122°25'1 0.7
2015-May-17 23:33N 37°49' W 122°25'1 1.0
2015-May-17 22:34N 37°49' W 122°25'3 3.2
2015-May-17 21:34N 37°49' W 122°29'3 3.0
2015-May-17 20:28N 37°49' W 122°25'2 2.3
2015-May-17 19:33N 37°49' W 122°27'2 2.4
2015-May-17 18:33N 37°49' W 122°24'0 0.4
2015-May-17 17:30N 37°49' W 122°25'0 0.0
2015-May-17 03:28N 37°49' W 122°25'0 0.0
2015-May-17 01:23N 37°49' W 122°25'0 0.1
2015-May-17 00:31N 37°49' W 122°25'1 1.1
2015-May-16 23:33N 37°49' W 122°25'1 1.1
2015-May-16 22:33N 37°49' W 122°25'2 1.9
2015-May-16 21:30N 37°49' W 122°27'2 2.1
2015-May-16 20:33N 37°49' W 122°25'2 2.5
2015-May-16 19:33N 37°49' W 122°28'3 2.6
2015-May-16 18:33N 37°49' W 122°24'0 0.2
2015-May-16 17:31N 37°49' W 122°25'0 0.0
2015-May-16 06:10N 37°49' W 122°25'0 0.0
2015-May-16 05:32N 37°49' W 122°25'0 0.0
2015-May-16 04:30N 37°49' W 122°25'0 0.0
2015-May-16 03:23N 37°49' W 122°25'0 0.0
2015-May-16 02:28N 37°49' W 122°25'0 0.0
2015-May-16 01:24N 37°49' W 122°25'0 0.1
2015-May-16 00:33N 37°49' W 122°25'1 1.3
2015-May-15 23:33N 37°50' W 122°25'1 1.3
2015-May-15 22:33N 37°49' W 122°25'0 0.0
2015-May-15 21:33N 37°49' W 122°25'0 0.0
2015-May-15 20:33N 37°49' W 122°25'0 0.0
2015-May-15 19:32N 37°49' W 122°25'0 0.0
2015-May-15 18:33N 37°49' W 122°25'0 0.0
2015-May-15 17:32N 37°49' W 122°25'0 0.0
2015-May-15 16:33N 37°49' W 122°25'0 0.0
2015-May-15 15:32N 37°49' W 122°25'0 0.0
2015-May-15 14:33N 37°49' W 122°25'0 0.0
2015-May-15 13:32N 37°49' W 122°25'0 0.0
2015-May-15 12:32N 37°49' W 122°25'0 0.0
2015-May-15 11:33N 37°49' W 122°25'0 0.0
2015-May-15 10:32N 37°49' W 122°25'0 0.0
2015-May-15 09:33N 37°49' W 122°25'0 0.0
2015-May-15 08:33N 37°49' W 122°25'0 0.0
2015-May-15 07:33N 37°49' W 122°25'0 0.0
2015-May-15 06:33N 37°49' W 122°25'0 0.0
2015-May-15 05:29N 37°49' W 122°25'0 0.0
2015-May-15 04:33N 37°49' W 122°25'0 0.0
2015-May-15 03:26N 37°49' W 122°25'0 0.0
2015-May-15 02:33N 37°49' W 122°25'0 0.0
2015-May-15 01:33N 37°49' W 122°25'0 0.0
2015-May-15 00:33N 37°49' W 122°25'0 0.0
2015-May-14 23:33N 37°49' W 122°25'0 0.0
2015-May-14 22:32N 37°49' W 122°25'0 0.0
2015-May-14 21:33N 37°49' W 122°25'0 0.0
2015-May-14 20:33N 37°49' W 122°25'0 0.0
2015-May-14 19:32N 37°49' W 122°25'0 0.0
2015-May-14 18:33N 37°49' W 122°25'0 0.0
2015-May-14 17:30N 37°49' W 122°25'0 0.0
2015-May-14 16:33N 37°49' W 122°25'0 0.0
2015-May-14 15:33N 37°49' W 122°25'0 0.0
2015-May-14 14:32N 37°49' W 122°25'0 0.0
2015-May-14 13:31N 37°49' W 122°25'0 0.0
2015-May-14 12:33N 37°49' W 122°25'0 0.0
2015-May-14 11:31N 37°49' W 122°25'0 0.0
2015-May-14 10:33N 37°49' W 122°25'0 0.0
2015-May-14 09:33N 37°49' W 122°25'0 0.0
2015-May-14 08:33N 37°49' W 122°25'0 0.0
2015-May-14 07:32N 37°49' W 122°25'0 0.0
2015-May-14 06:29N 37°49' W 122°25'0 0.0
2015-May-14 05:24N 37°49' W 122°25'0 0.0
2015-May-14 04:23N 37°49' W 122°25'0 0.0
2015-May-14 03:30N 37°49' W 122°25'0 0.0
2015-May-14 02:33N 37°49' W 122°25'0 0.0
2015-May-14 01:33N 37°49' W 122°25'0 0.0
2015-May-14 00:33N 37°49' W 122°25'0 0.0
2015-May-13 23:33N 37°49' W 122°25'0 0.0
2015-May-13 22:32N 37°49' W 122°25'0 0.0
2015-May-13 21:33N 37°49' W 122°25'0 0.0
2015-May-13 20:33N 37°49' W 122°25'0 0.0
2015-May-13 19:33N 37°49' W 122°25'0 0.0
2015-May-13 18:33N 37°49' W 122°25'0 0.0
2015-May-13 17:33N 37°49' W 122°25'0 0.0
2015-May-13 16:32N 37°49' W 122°25'0 0.0
2015-May-13 15:33N 37°49' W 122°25'0 0.0
2015-May-13 14:33N 37°49' W 122°25'0 0.0
2015-May-13 13:27N 37°49' W 122°25'0 0.0
2015-May-13 12:32N 37°49' W 122°25'0 0.0
2015-May-13 11:32N 37°49' W 122°25'0 0.0
2015-May-13 10:32N 37°49' W 122°25'0 0.0
2015-May-13 09:33N 37°49' W 122°25'0 0.0
2015-May-13 08:33N 37°49' W 122°25'0 0.0
2015-May-13 07:31N 37°49' W 122°25'  

Dump ship's entire track history